Impacts TAF Board
For situational awareness. Not to be used for flight planning purposes.
IDs:

KOPF - Miami/Opa Locka Arpt, FL, US

Issued at 2048 UTC 30 Jun 2022
Updated at 2304 UTC 30 Jun 2022
Potential Impact None Slight Moderate High
Time2253Z 01/00Z 01/01Z 01/02Z 01/03Z 01/04Z 01/05Z 01/06Z 01/07Z 01/08Z 01/09Z 01/10Z 01/11Z 01/12Z>>
Type OBS PRVL PRVL PRVL PRVL PRVL PRVL PRVL PRVL PRVL PRVL PRVL PRVL PRVL
VIS 10 >6 >6 >6 >6 >6 >6 >6 >6 >6 >6 >6 >6 >6
CIG -- 60 60 60 60 60 -- -- -- -- -- -- -- --
Cover CLR BKN BKN BKN BKN BKN SCT SCT SCT SCT SCT SCT SCT SCT
FltCat VFR VFR VFR VFR VFR VFR VFR VFR VFR VFR VFR VFR VFR VFR
WX -- -- -- -- -- -- -- -- -- -- -- -- -- --
WDir 120 100 100 100 100 100 VRB VRB VRB VRB VRB VRB VRB VRB
WSpd 8 6 6 6 6 6 4 4 4 4 4 4 4 4
WGst -- -- -- -- -- -- -- -- -- -- -- -- -- --
WSHgt -- -- -- -- -- -- -- -- -- -- -- -- -- --
WSDir -- -- -- -- -- -- -- -- -- -- -- -- -- --
WSSpd -- -- -- -- -- -- -- -- -- -- -- -- -- --
Raw TAF
KOPF 302048Z 3021/0118 11011KT P6SM VCTS SCT030CB BKN050
  FM302200 10006KT P6SM SCT030 BKN060
  FM010500 VRB04KT P6SM FEW025 SCT250
  FM011400 12009KT P6SM VCSH SCT030 SCT250


Raw METAR
KOPF 302253Z 12008KT 10SM CLR 30/22 A3008 RMK AO2 SLP186 T03000217
KOPF 302153Z 13009KT 10SM SCT033 BKN100 30/22 A3008 RMK AO2 LTG DSNT NW SLP188 T03000217
KOPF 302053Z 13011KT 10SM BKN090 31/22 A3008 RMK AO2 LTG DSNT W-N SLP187 T03060222 55002

METAR Board
Radar Display
Forecast Discussion
For situational awareness. Not to be used for flight planning purposes.